createdAt,value
2022-12-01T00:00:25.483Z,98587.70
2022-12-01T00:02:48.299Z,98577.89
2022-12-01T00:04:51.204Z,98584.70
2022-12-01T00:06:53.937Z,98582.39
2022-12-01T00:09:19.437Z,98577.71
2022-12-01T00:11:23.628Z,98579.86
2022-12-01T00:13:26.377Z,98581.27
2022-12-01T00:15:31.895Z,98578.00
2022-12-01T00:17:34.698Z,98574.75
2022-12-01T00:19:37.648Z,98577.69
2022-12-01T00:21:40.465Z,98576.15
2022-12-01T00:23:44.424Z,98576.60
2022-12-01T00:25:47.272Z,98576.33
2022-12-01T00:27:52.174Z,98575.41
2022-12-01T00:29:54.929Z,98575.53
2022-12-01T00:31:57.822Z,98575.69
2022-12-01T00:34:03.027Z,98575.52
2022-12-01T00:36:07.874Z,98574.52
2022-12-01T00:38:10.664Z,98574.55
2022-12-01T00:40:14.001Z,98578.88
2022-12-01T00:42:16.824Z,98577.41
2022-12-01T00:44:19.722Z,98580.62
2022-12-01T00:46:22.607Z,98577.42
2022-12-01T00:48:25.575Z,98581.18
2022-12-01T00:50:28.450Z,98575.87
2022-12-01T00:52:31.306Z,98579.39
2022-12-01T00:54:34.127Z,98580.19
2022-12-01T00:56:36.897Z,98580.30
2022-12-01T00:58:39.735Z,98577.82
2022-12-01T01:00:43.137Z,98577.63
2022-12-01T01:02:45.955Z,98568.40
2022-12-01T01:04:50.950Z,98566.04
2022-12-01T01:06:53.848Z,98566.67
2022-12-01T01:08:56.674Z,98559.34
2022-12-01T01:11:01.291Z,98556.63
2022-12-01T01:13:04.159Z,98557.45
2022-12-01T01:15:07.781Z,98555.87
2022-12-01T01:17:10.654Z,98560.16
2022-12-01T01:19:13.472Z,98556.92
2022-12-01T01:21:18.636Z,98555.16
2022-12-01T01:23:21.391Z,98552.52
2022-12-01T01:25:24.318Z,98551.14
2022-12-01T01:27:27.160Z,98546.96
2022-12-01T01:29:29.960Z,98544.98
2022-12-01T01:31:32.973Z,98543.77
2022-12-01T01:33:36.338Z,98544.30
2022-12-01T01:35:39.109Z,98543.71
2022-12-01T01:37:41.974Z,98544.16
2022-12-01T01:39:44.734Z,98543.58
2022-12-01T01:41:47.615Z,98543.77
2022-12-01T01:43:59.142Z,98541.98
2022-12-01T01:46:01.945Z,98538.31
2022-12-01T01:48:04.919Z,98536.11
2022-12-01T01:50:11.505Z,98530.26
2022-12-01T01:52:15.176Z,98528.11
2022-12-01T01:54:21.037Z,98525.30
2022-12-01T01:56:24.129Z,98524.30
2022-12-01T01:58:27.842Z,98524.22
2022-12-01T02:00:30.664Z,98522.89
2022-12-01T02:02:40.686Z,98524.65
2022-12-01T02:04:51.425Z,98523.64
2022-12-01T02:06:55.228Z,98523.81
2022-12-01T02:08:58.021Z,98523.43
2022-12-01T02:11:00.774Z,98523.50
2022-12-01T02:13:03.688Z,98523.02
2022-12-01T02:15:12.551Z,98522.95
2022-12-01T02:17:24.645Z,98524.58
2022-12-01T02:19:36.552Z,98524.05
2022-12-01T02:21:59.590Z,98529.08
2022-12-01T02:24:43.690Z,98534.95
2022-12-01T02:26:51.962Z,98527.00
2022-12-01T02:29:27.858Z,98522.41
2022-12-01T02:31:46.085Z,98516.95
2022-12-01T02:34:05.947Z,98515.59
2022-12-01T02:36:22.484Z,98517.03
2022-12-01T02:38:40.370Z,98515.14
2022-12-01T02:41:10.559Z,98512.48
2022-12-01T02:43:25.233Z,98513.23
2022-12-01T02:45:43.343Z,98512.58
2022-12-01T02:47:46.548Z,98510.04
2022-12-01T02:49:54.738Z,98511.52
2022-12-01T02:51:59.179Z,98512.27
2022-12-01T02:54:03.465Z,98510.25
2022-12-01T02:56:10.444Z,98507.06
2022-12-01T02:58:14.908Z,98510.06
2022-12-01T03:00:18.567Z,98510.25
2022-12-01T03:02:44.550Z,98512.14
2022-12-01T03:05:21.953Z,98504.60
2022-12-01T03:07:46.432Z,98497.38
2022-12-01T03:10:27.601Z,98491.27
2022-12-01T03:12:47.233Z,98492.45
2022-12-01T03:15:28.514Z,98486.65
2022-12-01T03:17:40.965Z,98478.68
2022-12-01T03:19:50.598Z,98479.12
2022-12-01T03:22:05.163Z,98476.62
2022-12-01T03:24:15.232Z,98475.19
2022-12-01T03:26:21.876Z,98473.65
2022-12-01T03:28:31.083Z,98474.48
2022-12-01T03:30:36.809Z,98473.12
2022-12-01T03:32:57.738Z,98469.58
2022-12-01T03:35:14.555Z,98474.65
2022-12-01T03:37:45.830Z,98474.69
2022-12-01T03:39:55.921Z,98471.48
2022-12-01T03:42:14.116Z,98468.64
2022-12-01T03:44:23.040Z,98467.88
2022-12-01T03:46:41.199Z,98471.86
2022-12-01T03:48:44.615Z,98471.52
2022-12-01T03:51:32.899Z,98472.23
2022-12-01T03:53:42.704Z,98471.19
2022-12-01T03:55:51.828Z,98474.45
2022-12-01T03:58:00.912Z,98477.70
2022-12-01T04:00:07.624Z,98476.14
2022-12-01T04:02:10.558Z,98475.19
2022-12-01T04:04:15.011Z,98473.98
2022-12-01T04:06:17.777Z,98474.82
2022-12-01T04:08:20.678Z,98473.10
2022-12-01T04:10:23.447Z,98473.08
2022-12-01T04:12:35.255Z,98475.81
2022-12-01T04:14:38.007Z,98472.42
2022-12-01T04:16:40.827Z,98478.98
2022-12-01T04:18:43.662Z,98475.80
2022-12-01T04:20:47.987Z,98477.38
2022-12-01T04:22:50.831Z,98476.98
2022-12-01T04:24:53.848Z,98477.88
2022-12-01T04:26:56.739Z,98483.77
2022-12-01T04:29:04.703Z,98479.93
2022-12-01T04:31:07.565Z,98477.59
2022-12-01T04:33:10.430Z,98479.19
2022-12-01T04:35:13.324Z,98477.23
2022-12-01T04:37:16.850Z,98480.31
2022-12-01T04:39:19.633Z,98480.62
2022-12-01T04:41:22.476Z,98479.05
2022-12-01T04:43:25.254Z,98479.02
2022-12-01T04:45:28.045Z,98481.05
2022-12-01T04:47:30.780Z,98480.66
2022-12-01T04:49:35.090Z,98474.37
2022-12-01T04:51:37.936Z,98476.70
2022-12-01T04:53:40.983Z,98476.33
2022-12-01T04:55:43.783Z,98473.79
2022-12-01T04:57:46.567Z,98477.39
2022-12-01T04:59:49.598Z,98478.59
2022-12-01T05:01:52.753Z,98481.08
2022-12-01T05:03:55.808Z,98481.19
2022-12-01T05:06:06.877Z,98482.89
2022-12-01T05:08:10.142Z,98483.73
2022-12-01T05:10:14.366Z,98487.32
2022-12-01T05:12:17.437Z,98488.84
2022-12-01T05:14:20.209Z,98489.23
2022-12-01T05:16:25.788Z,98493.70
2022-12-01T05:18:28.816Z,98497.58
2022-12-01T05:20:50.437Z,98492.27
2022-12-01T05:23:05.444Z,98488.93
2022-12-01T05:25:09.247Z,98487.05
2022-12-01T05:27:12.100Z,98484.40
2022-12-01T05:29:15.213Z,98483.98
2022-12-01T05:31:18.071Z,98484.87
2022-12-01T05:33:22.597Z,98481.52
2022-12-01T05:35:25.419Z,98481.20
2022-12-01T05:37:33.318Z,98481.84
2022-12-01T05:39:36.312Z,98478.59
2022-12-01T05:41:39.095Z,98472.79
2022-12-01T05:43:42.031Z,98472.14
2022-12-01T05:45:44.869Z,98477.76
2022-12-01T05:47:47.728Z,98476.27
2022-12-01T05:49:51.028Z,98479.23
2022-12-01T05:51:53.996Z,98481.98
2022-12-01T05:53:59.530Z,98480.59
2022-12-01T05:56:02.341Z,98479.52
2022-12-01T05:58:05.520Z,98479.67
2022-12-01T06:00:09.234Z,98478.47
2022-12-01T06:02:12.089Z,98477.32
2022-12-01T06:04:15.211Z,98481.43
2022-12-01T06:06:18.520Z,98488.80
2022-12-01T06:08:21.515Z,98489.23
2022-12-01T06:10:24.532Z,98492.12
2022-12-01T06:12:27.730Z,98492.73
2022-12-01T06:14:30.476Z,98493.59
2022-12-01T06:16:33.380Z,98493.75
2022-12-01T06:18:38.330Z,98494.73
2022-12-01T06:20:41.174Z,98495.90
2022-12-01T06:22:43.943Z,98489.29
2022-12-01T06:24:46.756Z,98487.45
2022-12-01T06:26:49.665Z,98489.55
2022-12-01T06:28:52.480Z,98487.74
2022-12-01T06:30:59.480Z,98490.14
2022-12-01T06:33:06.102Z,98492.33
2022-12-01T06:35:09.055Z,98498.02
2022-12-01T06:37:12.555Z,98499.20
2022-12-01T06:39:16.924Z,98497.73
2022-12-01T06:41:19.652Z,98499.88
2022-12-01T06:43:22.558Z,98497.22
2022-12-01T06:45:25.376Z,98493.53
2022-12-01T06:47:28.256Z,98499.38
2022-12-01T06:49:31.077Z,98496.54
2022-12-01T06:51:34.653Z,98493.50
2022-12-01T06:53:37.462Z,98490.41
2022-12-01T06:55:40.270Z,98492.58
2022-12-01T06:57:43.680Z,98489.80
2022-12-01T06:59:47.015Z,98495.84
2022-12-01T07:01:50.565Z,98495.63
2022-12-01T07:03:53.563Z,98500.38
2022-12-01T07:06:01.298Z,98503.20
2022-12-01T07:08:04.158Z,98503.70
2022-12-01T07:10:08.483Z,98503.15
2022-12-01T07:12:11.395Z,98507.42
2022-12-01T07:14:32.074Z,98509.30
2022-12-01T07:16:35.105Z,98510.83
2022-12-01T07:18:38.816Z,98511.73
2022-12-01T07:20:41.817Z,98512.73
2022-12-01T07:22:44.608Z,98515.16
2022-12-01T07:24:47.455Z,98518.52
2022-12-01T07:26:50.244Z,98520.02
2022-12-01T07:28:53.306Z,98523.37
2022-12-01T07:31:04.055Z,98521.73
2022-12-01T07:33:06.961Z,98520.98
2022-12-01T07:35:10.371Z,98525.79
2022-12-01T07:37:13.260Z,98518.14
2022-12-01T07:39:16.177Z,98519.55
2022-12-01T07:41:19.520Z,98522.63
2022-12-01T07:43:22.332Z,98523.31
2022-12-01T07:45:25.146Z,98523.04
2022-12-01T07:47:27.997Z,98526.42
2022-12-01T07:49:30.841Z,98523.52
2022-12-01T07:51:34.229Z,98520.02
2022-12-01T07:53:37.966Z,98522.14
2022-12-01T07:55:47.571Z,98520.56
2022-12-01T07:57:50.310Z,98521.39
2022-12-01T07:59:53.205Z,98522.23
2022-12-01T08:01:55.983Z,98523.54
2022-12-01T08:04:00.322Z,98525.89
2022-12-01T08:06:05.194Z,98522.97
2022-12-01T08:08:08.150Z,98529.33
2022-12-01T08:10:11.467Z,98530.52
2022-12-01T08:12:14.364Z,98532.92
2022-12-01T08:14:17.080Z,98531.64
2022-12-01T08:16:22.475Z,98530.39
2022-12-01T08:18:25.595Z,98528.57
2022-12-01T08:20:28.482Z,98530.40
2022-12-01T08:22:31.326Z,98531.08
2022-12-01T08:24:34.125Z,98532.11
2022-12-01T08:26:36.900Z,98530.80
2022-12-01T08:28:40.265Z,98531.84
2022-12-01T08:30:43.148Z,98535.63
2022-12-01T08:32:46.011Z,98531.40
2022-12-01T08:34:53.365Z,98535.48
2022-12-01T08:36:56.643Z,98539.36
2022-12-01T08:39:00.292Z,98533.83
2022-12-01T08:41:08.863Z,98534.75
2022-12-01T08:43:23.190Z,98536.38
2022-12-01T08:45:34.618Z,98533.61
2022-12-01T08:47:37.405Z,98535.10
2022-12-01T08:49:40.159Z,98533.48
2022-12-01T08:51:42.944Z,98534.55
2022-12-01T08:53:47.871Z,98537.60
2022-12-01T08:55:50.670Z,98537.80
2022-12-01T08:57:53.461Z,98536.06
2022-12-01T08:59:56.307Z,98536.94
2022-12-01T09:02:02.429Z,98539.27
2022-12-01T09:04:09.023Z,98538.23
2022-12-01T09:06:14.166Z,98534.88
2022-12-01T09:08:31.927Z,98531.28
2022-12-01T09:10:34.748Z,98528.27
2022-12-01T09:12:37.573Z,98527.71
2022-12-01T09:14:44.350Z,98530.52
2022-12-01T09:16:49.851Z,98527.84
2022-12-01T09:18:52.653Z,98520.39
2022-12-01T09:20:56.278Z,98520.43
2022-12-01T09:22:59.180Z,98513.89
2022-12-01T09:25:02.066Z,98512.63
2022-12-01T09:27:05.599Z,98509.23
2022-12-01T09:29:10.792Z,98501.38
2022-12-01T09:31:15.419Z,98494.23
2022-12-01T09:33:18.365Z,98497.65
2022-12-01T09:35:23.584Z,98494.47
2022-12-01T09:37:26.574Z,98499.48
2022-12-01T09:39:29.960Z,98499.67
2022-12-01T09:41:32.668Z,98495.13
2022-12-01T09:44:10.741Z,98492.50
2022-12-01T09:46:18.941Z,98491.80
2022-12-01T09:48:29.529Z,98489.23
2022-12-01T09:50:33.179Z,98489.15
2022-12-01T09:52:43.324Z,98488.45
2022-12-01T09:54:49.719Z,98486.75
2022-12-01T09:56:55.550Z,98487.27
2022-12-01T09:59:06.164Z,98485.38
2022-12-01T10:01:17.696Z,98482.15
2022-12-01T10:03:40.625Z,98480.73
2022-12-01T10:06:18.454Z,98478.25
2022-12-01T10:08:26.830Z,98474.89
2022-12-01T10:10:51.178Z,98475.66
2022-12-01T10:12:54.329Z,98474.27
2022-12-01T10:15:14.235Z,98468.70
2022-12-01T10:17:17.039Z,98465.84
2022-12-01T10:19:33.040Z,98471.35
2022-12-01T10:22:09.995Z,98468.02
2022-12-01T10:24:34.088Z,98470.65
2022-12-01T10:26:48.863Z,98473.98
2022-12-01T10:29:10.321Z,98477.59
2022-12-01T10:31:21.173Z,98474.48
2022-12-01T10:33:26.626Z,98470.52
2022-12-01T10:35:37.232Z,98467.64
2022-12-01T10:37:40.228Z,98473.45
2022-12-01T10:39:46.654Z,98466.92
2022-12-01T10:41:50.219Z,98462.95
2022-12-01T10:44:00.886Z,98457.99
2022-12-01T10:46:44.272Z,98455.97
2022-12-01T10:48:55.608Z,98455.62
2022-12-01T10:51:15.492Z,98457.18
2022-12-01T10:53:24.290Z,98458.45
2022-12-01T10:55:31.039Z,98454.11
2022-12-01T10:57:33.919Z,98452.30
2022-12-01T10:59:48.910Z,98455.96
2022-12-01T11:01:53.377Z,98455.27
2022-12-01T11:03:59.860Z,98453.84
2022-12-01T11:06:05.486Z,98447.80
2022-12-01T11:08:22.752Z,98449.85
2022-12-01T11:10:33.560Z,98446.70
2022-12-01T11:12:36.388Z,98456.77
2022-12-01T11:14:42.141Z,98455.05
2022-12-01T11:16:48.131Z,98451.09
2022-12-01T11:19:27.727Z,98454.23
2022-12-01T11:21:32.613Z,98453.97
2022-12-01T11:23:37.168Z,98457.42
2022-12-01T11:25:40.230Z,98458.98
2022-12-01T11:28:03.357Z,98453.80
2022-12-01T11:30:24.886Z,98453.09
2022-12-01T11:32:31.010Z,98449.63
2022-12-01T11:34:34.639Z,98450.14
2022-12-01T11:36:44.162Z,98450.27
2022-12-01T11:38:47.721Z,98445.44
2022-12-01T11:40:54.706Z,98451.01
2022-12-01T11:42:59.217Z,98452.14
2022-12-01T11:45:25.286Z,98450.23
2022-12-01T11:47:28.592Z,98451.17
2022-12-01T11:49:31.511Z,98447.25
2022-12-01T11:51:38.068Z,98447.64
2022-12-01T11:53:45.606Z,98449.83
2022-12-01T11:55:48.398Z,98450.81
2022-12-01T11:57:54.841Z,98451.63
2022-12-01T11:59:57.823Z,98444.51
2022-12-01T12:02:09.503Z,98449.68
2022-12-01T12:04:30.476Z,98444.90
2022-12-01T12:06:48.308Z,98440.23
2022-12-01T12:09:22.587Z,98446.21
2022-12-01T12:11:46.293Z,98444.40
2022-12-01T12:14:39.341Z,98443.41
2022-12-01T12:16:53.941Z,98446.41
2022-12-01T12:19:33.649Z,98448.20
2022-12-01T12:22:02.404Z,98449.96
2022-12-01T12:24:26.725Z,98449.39
2022-12-01T12:26:34.892Z,98456.15
2022-12-01T12:28:59.621Z,98462.17
2022-12-01T12:31:08.692Z,98465.26
2022-12-01T12:33:32.269Z,98459.58
2022-12-01T12:35:46.931Z,98456.41
2022-12-01T12:38:28.317Z,98450.42
2022-12-01T12:41:02.358Z,98452.85
2022-12-01T12:43:33.328Z,98448.18
2022-12-01T12:45:45.213Z,98450.44
2022-12-01T12:48:25.788Z,98448.41
2022-12-01T12:50:40.973Z,98451.59
2022-12-01T12:52:47.772Z,98452.45
2022-12-01T12:55:11.082Z,98449.82
2022-12-01T12:57:30.158Z,98449.71
2022-12-01T12:59:38.525Z,98451.64
2022-12-01T13:01:55.956Z,98448.23
2022-12-01T13:04:05.052Z,98450.98
2022-12-01T13:06:18.146Z,98449.36
2022-12-01T13:08:23.627Z,98456.33
2022-12-01T13:10:29.464Z,98454.98
2022-12-01T13:12:41.488Z,98451.34
2022-12-01T13:15:00.820Z,98453.01
2022-12-01T13:17:18.523Z,98453.50
2022-12-01T13:19:25.715Z,98450.10
2022-12-01T13:21:32.676Z,98448.05
2022-12-01T13:23:37.797Z,98445.75
2022-12-01T13:25:42.216Z,98448.24
2022-12-01T13:27:46.107Z,98445.08
2022-12-01T13:29:52.467Z,98443.48
2022-12-01T13:31:55.622Z,98445.11
2022-12-01T13:34:01.841Z,98442.64
2022-12-01T13:36:45.173Z,98449.11
2022-12-01T13:38:35.947Z,98447.73
2022-12-01T13:40:39.395Z,98452.95
2022-12-01T13:42:42.896Z,98452.30
2022-12-01T13:45:17.158Z,98449.95
2022-12-01T13:47:19.856Z,98452.96
2022-12-01T13:49:44.142Z,98449.60
2022-12-01T13:52:21.189Z,98448.73
2022-12-01T13:54:29.648Z,98448.43
2022-12-01T13:56:47.405Z,98449.36
2022-12-01T13:58:52.718Z,98448.32
2022-12-01T14:01:21.661Z,98451.80
2022-12-01T14:03:39.873Z,98447.80
2022-12-01T14:05:45.989Z,98447.71
2022-12-01T14:07:51.045Z,98451.55
2022-12-01T14:10:07.436Z,98448.73
2022-12-01T14:12:20.910Z,98446.46
2022-12-01T14:14:26.683Z,98448.02
2022-12-01T14:16:49.616Z,98450.70
2022-12-01T14:18:58.545Z,98451.73
2022-12-01T14:21:04.782Z,98452.55
2022-12-01T14:23:07.553Z,98457.29
2022-12-01T14:25:22.710Z,98454.46
2022-12-01T14:27:41.007Z,98453.85
2022-12-01T14:29:44.000Z,98453.13
2022-12-01T14:31:52.564Z,98456.95
2022-12-01T14:34:03.484Z,98460.20
2022-12-01T14:36:22.798Z,98462.95
2022-12-01T14:38:28.493Z,98463.60
2022-12-01T14:40:31.583Z,98459.58
2022-12-01T14:43:11.259Z,98460.35
2022-12-01T14:45:19.006Z,98453.73
2022-12-01T14:47:29.745Z,98458.28
2022-12-01T14:49:38.268Z,98461.64
2022-12-01T14:51:46.188Z,98456.59
2022-12-01T14:53:50.808Z,98458.65
2022-12-01T14:55:56.822Z,98459.17
2022-12-01T14:58:05.430Z,98461.52
2022-12-01T15:00:14.410Z,98461.05
2022-12-01T15:02:17.291Z,98464.00
2022-12-01T15:04:20.219Z,98460.95
2022-12-01T15:06:25.908Z,98464.39
2022-12-01T15:08:41.923Z,98462.95
2022-12-01T15:10:57.510Z,98462.70
2022-12-01T15:13:14.762Z,98465.31
2022-12-01T15:15:25.076Z,98463.08
2022-12-01T15:17:37.076Z,98455.27
2022-12-01T15:19:41.411Z,98451.13
2022-12-01T15:21:44.272Z,98449.98
2022-12-01T15:24:03.599Z,98453.44
2022-12-01T15:26:06.934Z,98453.02
2022-12-01T15:28:21.977Z,98449.91
2022-12-01T15:30:24.867Z,98447.52
2022-12-01T15:32:28.386Z,98446.65
2022-12-01T15:34:39.783Z,98449.13
2022-12-01T15:36:43.232Z,98449.94
2022-12-01T15:38:48.213Z,98452.08
2022-12-01T15:41:21.165Z,98446.56
2022-12-01T15:43:22.355Z,98451.23
2022-12-01T15:45:25.353Z,98448.95
2022-12-01T15:47:36.111Z,98445.92
2022-12-01T15:49:49.242Z,98450.32
2022-12-01T15:51:52.038Z,98451.64
2022-12-01T15:53:59.985Z,98450.41
2022-12-01T15:56:06.673Z,98446.62
2022-12-01T15:58:19.843Z,98447.63
2022-12-01T16:00:23.202Z,98447.77
2022-12-01T16:02:30.265Z,98450.02
2022-12-01T16:04:33.218Z,98448.11
2022-12-01T16:06:38.284Z,98445.02
2022-12-01T16:08:41.276Z,98449.46
2022-12-01T16:10:44.496Z,98449.51
2022-12-01T16:12:47.991Z,98451.55
2022-12-01T16:15:08.251Z,98449.73
2022-12-01T16:17:11.262Z,98452.95
2022-12-01T16:19:17.006Z,98450.27
2022-12-01T16:21:20.429Z,98458.01
2022-12-01T16:23:26.087Z,98451.96
2022-12-01T16:25:32.497Z,98450.77
2022-12-01T16:27:37.789Z,98450.27
2022-12-01T16:29:58.867Z,98450.75
2022-12-01T16:32:20.303Z,98450.45
2022-12-01T16:34:44.706Z,98453.23
2022-12-01T16:36:47.237Z,98453.13
2022-12-01T16:38:50.076Z,98453.42
2022-12-01T16:40:59.201Z,98447.59
2022-12-01T16:43:01.952Z,98447.02
2022-12-01T16:45:05.069Z,98453.52
2022-12-01T16:47:17.694Z,98450.52
2022-12-01T16:49:20.555Z,98452.77
2022-12-01T16:51:29.914Z,98449.95
2022-12-01T16:53:49.642Z,98450.84
2022-12-01T16:55:59.727Z,98451.64
2022-12-01T16:58:02.612Z,98456.19
2022-12-01T17:00:06.099Z,98453.58
2022-12-01T17:02:10.680Z,98452.11
2022-12-01T17:04:13.659Z,98454.18
2022-12-01T17:06:18.977Z,98453.83
2022-12-01T17:08:22.281Z,98449.44
2022-12-01T17:10:25.141Z,98450.65
2022-12-01T17:12:28.213Z,98456.68
2022-12-01T17:14:31.210Z,98456.49
2022-12-01T17:16:34.034Z,98453.95
2022-12-01T17:18:39.595Z,98457.85
2022-12-01T17:20:42.987Z,98458.47
2022-12-01T17:22:45.829Z,98456.48
2022-12-01T17:24:49.038Z,98459.21
2022-12-01T17:26:52.178Z,98456.85
2022-12-01T17:28:55.424Z,98452.14
2022-12-01T17:31:01.962Z,98455.28
2022-12-01T17:33:04.944Z,98453.56
2022-12-01T17:35:08.217Z,98456.02
2022-12-01T17:37:14.870Z,98459.39
2022-12-01T17:39:20.546Z,98460.66
2022-12-01T17:41:25.020Z,98457.64
2022-12-01T17:43:28.015Z,98449.70
2022-12-01T17:45:32.452Z,98451.48
2022-12-01T17:47:35.348Z,98452.62
2022-12-01T17:49:38.179Z,98451.66
2022-12-01T17:51:41.862Z,98453.20
2022-12-01T17:53:44.858Z,98449.03
2022-12-01T17:55:47.668Z,98449.92
2022-12-01T17:57:50.452Z,98446.13
2022-12-01T17:59:53.228Z,98453.08
2022-12-01T18:01:56.203Z,98451.89
2022-12-01T18:03:59.233Z,98449.10
2022-12-01T18:06:02.262Z,98447.30
2022-12-01T18:08:05.626Z,98446.50
2022-12-01T18:10:08.874Z,98446.98
2022-12-01T18:12:12.054Z,98447.50
2022-12-01T18:14:17.886Z,98445.60
2022-12-01T18:16:25.954Z,98445.58
2022-12-01T18:18:28.986Z,98445.64
2022-12-01T18:20:31.964Z,98444.60
2022-12-01T18:22:34.795Z,98445.18
2022-12-01T18:24:37.684Z,98446.68
2022-12-01T18:26:41.344Z,98441.89
2022-12-01T18:28:44.375Z,98440.67
2022-12-01T18:30:47.266Z,98441.52
2022-12-01T18:32:50.244Z,98439.74
2022-12-01T18:34:53.271Z,98438.81
2022-12-01T18:36:56.990Z,98437.95
2022-12-01T18:39:01.132Z,98435.73
2022-12-01T18:41:06.957Z,98436.39
2022-12-01T18:43:12.883Z,98438.56
2022-12-01T18:45:20.726Z,98437.00
2022-12-01T18:47:24.110Z,98442.70
2022-12-01T18:49:27.069Z,98436.09
2022-12-01T18:51:34.182Z,98433.66
2022-12-01T18:53:36.954Z,98435.55
2022-12-01T18:55:39.804Z,98434.56
2022-12-01T18:57:42.610Z,98431.84
2022-12-01T18:59:45.806Z,98428.36
2022-12-01T19:01:48.762Z,98430.52
2022-12-01T19:03:51.840Z,98427.50
2022-12-01T19:05:54.627Z,98426.39
2022-12-01T19:07:57.862Z,98425.05
2022-12-01T19:10:00.921Z,98423.02
2022-12-01T19:12:03.960Z,98425.93
2022-12-01T19:14:10.581Z,98426.29
2022-12-01T19:16:19.915Z,98423.70
2022-12-01T19:18:22.961Z,98421.61
2022-12-01T19:20:25.829Z,98424.27
2022-12-01T19:22:28.686Z,98420.85
2022-12-01T19:24:31.528Z,98424.80
2022-12-01T19:26:34.481Z,98423.68
2022-12-01T19:28:38.296Z,98428.75
2022-12-01T19:30:45.353Z,98426.52
2022-12-01T19:32:50.786Z,98424.34
2022-12-01T19:34:53.549Z,98420.33
2022-12-01T19:36:56.916Z,98424.02
2022-12-01T19:39:03.996Z,98419.87
2022-12-01T19:41:11.277Z,98421.44
2022-12-01T19:43:14.053Z,98422.67
2022-12-01T19:45:16.853Z,98422.29
2022-12-01T19:47:22.362Z,98419.54
2022-12-01T19:49:25.512Z,98417.13
2022-12-01T19:51:36.689Z,98420.34
2022-12-01T19:53:39.425Z,98417.64
2022-12-01T19:55:42.254Z,98422.48
2022-12-01T19:57:45.030Z,98424.41
2022-12-01T19:59:47.989Z,98424.58
2022-12-01T20:01:50.890Z,98422.60
2022-12-01T20:03:54.989Z,98425.98
2022-12-01T20:06:05.495Z,98429.90
2022-12-01T20:08:08.486Z,98427.40
2022-12-01T20:10:11.573Z,98427.35
2022-12-01T20:12:14.774Z,98430.03
2022-12-01T20:14:17.636Z,98423.91
2022-12-01T20:16:23.625Z,98418.56
2022-12-01T20:18:26.490Z,98420.10
2022-12-01T20:20:29.323Z,98415.47
2022-12-01T20:22:33.733Z,98412.02
2022-12-01T20:24:41.198Z,98410.04
2022-12-01T20:26:50.375Z,98413.39
2022-12-01T20:28:53.492Z,98413.32
2022-12-01T20:30:58.298Z,98415.60
2022-12-01T20:33:01.337Z,98418.98
2022-12-01T20:35:04.862Z,98419.70
2022-12-01T20:37:07.879Z,98419.13
2022-12-01T20:39:12.096Z,98424.34
2022-12-01T20:41:15.412Z,98424.00
2022-12-01T20:43:19.122Z,98420.58
2022-12-01T20:45:21.891Z,98418.40
2022-12-01T20:47:24.894Z,98421.51
2022-12-01T20:49:27.722Z,98420.12
2022-12-01T20:51:33.499Z,98424.44
2022-12-01T20:53:36.486Z,98418.66
2022-12-01T20:55:39.531Z,98415.73
2022-12-01T20:57:42.427Z,98417.95
2022-12-01T20:59:45.229Z,98418.02
2022-12-01T21:01:48.169Z,98416.04
2022-12-01T21:03:51.280Z,98420.52
2022-12-01T21:05:54.083Z,98420.07
2022-12-01T21:07:56.874Z,98418.37
2022-12-01T21:09:59.740Z,98420.33
2022-12-01T21:12:24.470Z,98420.05
2022-12-01T21:14:44.642Z,98419.88
2022-12-01T21:16:49.508Z,98420.39
2022-12-01T21:18:55.684Z,98420.89
2022-12-01T21:21:19.663Z,98420.47
2022-12-01T21:23:22.628Z,98424.79
2022-12-01T21:25:25.767Z,98420.24
2022-12-01T21:27:28.735Z,98422.30
2022-12-01T21:29:41.055Z,98419.84
2022-12-01T21:31:45.328Z,98419.48
2022-12-01T21:33:48.162Z,98415.27
2022-12-01T21:35:52.398Z,98417.40
2022-12-01T21:38:01.836Z,98414.05
2022-12-01T21:40:16.294Z,98415.70
2022-12-01T21:42:25.882Z,98413.32
2022-12-01T21:44:36.218Z,98416.85
2022-12-01T21:46:42.635Z,98418.10
2022-12-01T21:48:48.575Z,98418.74
2022-12-01T21:50:59.684Z,98416.44
2022-12-01T21:53:02.481Z,98417.08
2022-12-01T21:55:14.452Z,98417.05
2022-12-01T21:57:42.564Z,98417.29
2022-12-01T21:59:45.995Z,98420.55
2022-12-01T22:01:58.157Z,98416.99
2022-12-01T22:04:05.776Z,98416.09
2022-12-01T22:06:29.232Z,98412.19
2022-12-01T22:08:36.470Z,98411.84
2022-12-01T22:10:56.646Z,98409.48
2022-12-01T22:12:59.428Z,98409.00
2022-12-01T22:15:14.825Z,98408.00
2022-12-01T22:17:21.689Z,98407.73
2022-12-01T22:19:35.270Z,98403.08
2022-12-01T22:21:45.554Z,98406.00
2022-12-01T22:24:02.625Z,98409.39
2022-12-01T22:26:16.910Z,98407.94
2022-12-01T22:28:23.405Z,98409.48
2022-12-01T22:30:26.174Z,98402.74
2022-12-01T22:32:37.476Z,98404.08
2022-12-01T22:34:45.552Z,98406.55
2022-12-01T22:36:48.902Z,98406.66
2022-12-01T22:38:52.038Z,98409.80
2022-12-01T22:41:05.859Z,98410.65
2022-12-01T22:43:17.857Z,98410.77
2022-12-01T22:45:26.373Z,98406.12
2022-12-01T22:47:32.992Z,98409.19
2022-12-01T22:49:35.816Z,98403.89
2022-12-01T22:51:44.475Z,98403.37
2022-12-01T22:53:47.551Z,98398.80
2022-12-01T22:55:54.076Z,98396.20
2022-12-01T22:57:56.953Z,98396.46
2022-12-01T23:00:17.278Z,98392.13
2022-12-01T23:02:27.155Z,98394.37
2022-12-01T23:04:38.689Z,98392.79
2022-12-01T23:07:15.565Z,98383.93
2022-12-01T23:09:19.291Z,98383.86
2022-12-01T23:11:22.144Z,98381.72
2022-12-01T23:13:25.198Z,98380.48
2022-12-01T23:15:34.159Z,98376.66
2022-12-01T23:17:39.213Z,98372.36
2022-12-01T23:19:42.184Z,98374.27
2022-12-01T23:21:44.958Z,98370.94
2022-12-01T23:23:47.819Z,98373.96
2022-12-01T23:25:50.694Z,98373.51
2022-12-01T23:27:59.281Z,98376.82
2022-12-01T23:30:02.112Z,98379.61
2022-12-01T23:32:05.117Z,98371.65
2022-12-01T23:34:16.883Z,98373.44
2022-12-01T23:36:29.789Z,98368.83
2022-12-01T23:38:38.916Z,98372.95
2022-12-01T23:40:41.979Z,98368.92
2022-12-01T23:42:44.857Z,98367.96
2022-12-01T23:44:49.723Z,98367.27
2022-12-01T23:46:55.576Z,98372.98
2022-12-01T23:49:12.200Z,98372.25
2022-12-01T23:51:32.704Z,98370.49
2022-12-01T23:53:35.457Z,98368.80
2022-12-01T23:55:39.299Z,98367.40
2022-12-01T23:57:46.465Z,98366.44
2022-12-01T23:59:51.152Z,98369.16
